sensor_id;sensor_type;location;lat;lon;timestamp;pressure;altitude;pressure_sealevel;temperature
73734;BMP280;62039;50.000;9.064;2022-12-10T00:02:01;99349.63;;;1.08
73734;BMP280;62039;50.000;9.064;2022-12-10T00:04:27;99349.88;;;1.05
73734;BMP280;62039;50.000;9.064;2022-12-10T00:06:54;99349.41;;;1.00
73734;BMP280;62039;50.000;9.064;2022-12-10T00:09:20;99353.03;;;0.98
73734;BMP280;62039;50.000;9.064;2022-12-10T00:11:49;99360.88;;;0.96
73734;BMP280;62039;50.000;9.064;2022-12-10T00:14:16;99361.84;;;0.95
73734;BMP280;62039;50.000;9.064;2022-12-10T00:16:42;99359.25;;;0.95
73734;BMP280;62039;50.000;9.064;2022-12-10T00:19:09;99366.28;;;0.93
73734;BMP280;62039;50.000;9.064;2022-12-10T00:21:36;99366.28;;;0.93
73734;BMP280;62039;50.000;9.064;2022-12-10T00:24:03;99362.88;;;0.93
73734;BMP280;62039;50.000;9.064;2022-12-10T00:26:32;99367.22;;;0.92
73734;BMP280;62039;50.000;9.064;2022-12-10T00:29:02;99363.81;;;0.92
73734;BMP280;62039;50.000;9.064;2022-12-10T00:31:31;99363.00;;;0.91
73734;BMP280;62039;50.000;9.064;2022-12-10T00:34:00;99361.34;;;0.90
73734;BMP280;62039;50.000;9.064;2022-12-10T00:36:28;99363.94;;;0.90
73734;BMP280;62039;50.000;9.064;2022-12-10T00:38:55;99359.72;;;0.89
73734;BMP280;62039;50.000;9.064;2022-12-10T00:41:22;99355.53;;;0.88
73734;BMP280;62039;50.000;9.064;2022-12-10T00:43:49;99351.34;;;0.87
73734;BMP280;62039;50.000;9.064;2022-12-10T00:46:18;99354.94;;;0.85
73734;BMP280;62039;50.000;9.064;2022-12-10T00:48:45;99352.50;;;0.83
73734;BMP280;62039;50.000;9.064;2022-12-10T00:51:14;99355.06;;;0.83
73734;BMP280;62039;50.000;9.064;2022-12-10T00:53:42;99351.00;;;0.81
73734;BMP280;62039;50.000;9.064;2022-12-10T00:56:10;99358.00;;;0.79
73734;BMP280;62039;50.000;9.064;2022-12-10T00:58:38;99362.22;;;0.80
73734;BMP280;62039;50.000;9.064;2022-12-10T01:01:09;99357.19;;;0.78
73734;BMP280;62039;50.000;9.064;2022-12-10T01:03:38;99359.06;;;0.76
73734;BMP280;62039;50.000;9.064;2022-12-10T01:06:13;99364.47;;;0.73
73734;BMP280;62039;50.000;9.064;2022-12-10T01:08:41;99367.94;;;0.72
73734;BMP280;62039;50.000;9.064;2022-12-10T01:11:08;99367.25;;;0.70
73734;BMP280;62039;50.000;9.064;2022-12-10T01:13:36;99370.06;;;0.67
73734;BMP280;62039;50.000;9.064;2022-12-10T01:16:03;99370.06;;;0.67
73734;BMP280;62039;50.000;9.064;2022-12-10T01:18:30;99371.94;;;0.65
73734;BMP280;62039;50.000;9.064;2022-12-10T01:21:01;99382.22;;;0.65
73734;BMP280;62039;50.000;9.064;2022-12-10T01:23:28;99378.94;;;0.63
73734;BMP280;62039;50.000;9.064;2022-12-10T01:25:59;99379.19;;;0.60
73734;BMP280;62039;50.000;9.064;2022-12-10T01:28:28;99387.94;;;0.57
73734;BMP280;62039;50.000;9.064;2022-12-10T01:30:54;99391.59;;;0.55
73734;BMP280;62039;50.000;9.064;2022-12-10T01:33:22;99390.88;;;0.53
73734;BMP280;62039;50.000;9.064;2022-12-10T01:35:48;99390.19;;;0.51
73734;BMP280;62039;50.000;9.064;2022-12-10T01:38:16;99388.53;;;0.50
73734;BMP280;62039;50.000;9.064;2022-12-10T01:40:43;99393.94;;;0.47
73734;BMP280;62039;50.000;9.064;2022-12-10T01:43:12;99397.44;;;0.46
73734;BMP280;62039;50.000;9.064;2022-12-10T01:45:40;99407.00;;;0.44
73734;BMP280;62039;50.000;9.064;2022-12-10T01:48:07;99397.78;;;0.41
73734;BMP280;62039;50.000;9.064;2022-12-10T01:50:33;99406.44;;;0.40
73734;BMP280;62039;50.000;9.064;2022-12-10T01:53:00;99409.09;;;0.39
73734;BMP280;62039;50.000;9.064;2022-12-10T01:55:45;99408.28;;;0.38
73734;BMP280;62039;50.000;9.064;2022-12-10T01:58:13;99411.91;;;0.35
73734;BMP280;62039;50.000;9.064;2022-12-10T02:00:45;99425.69;;;0.34
73734;BMP280;62039;50.000;9.064;2022-12-10T02:03:14;99422.41;;;0.32
73734;BMP280;62039;50.000;9.064;2022-12-10T02:05:49;99420.78;;;0.31
73734;BMP280;62039;50.000;9.064;2022-12-10T02:08:21;99419.22;;;0.29
73734;BMP280;62039;50.000;9.064;2022-12-10T02:10:58;99413.41;;;0.27
73734;BMP280;62039;50.000;9.064;2022-12-10T02:13:29;99410.94;;;0.25
73734;BMP280;62039;50.000;9.064;2022-12-10T02:16:01;99404.97;;;0.25
73734;BMP280;62039;50.000;9.064;2022-12-10T02:18:32;99401.84;;;0.21
73734;BMP280;62039;50.000;9.064;2022-12-10T02:21:04;99414.78;;;0.20
73734;BMP280;62039;50.000;9.064;2022-12-10T02:23:35;99414.91;;;0.18
73734;BMP280;62039;50.000;9.064;2022-12-10T02:26:09;99413.25;;;0.17
73734;BMP280;62039;50.000;9.064;2022-12-10T02:28:43;99404.84;;;0.15
73734;BMP280;62039;50.000;9.064;2022-12-10T02:31:15;99404.06;;;0.15
73734;BMP280;62039;50.000;9.064;2022-12-10T02:33:48;99415.13;;;0.15
73734;BMP280;62039;50.000;9.064;2022-12-10T02:36:17;99406.72;;;0.13
73734;BMP280;62039;50.000;9.064;2022-12-10T02:38:45;99410.13;;;0.14
73734;BMP280;62039;50.000;9.064;2022-12-10T02:41:15;99411.88;;;0.13
73734;BMP280;62039;50.000;9.064;2022-12-10T02:43:43;99411.06;;;0.13
73734;BMP280;62039;50.000;9.064;2022-12-10T02:46:13;99415.38;;;0.12
73734;BMP280;62039;50.000;9.064;2022-12-10T02:48:40;99417.13;;;0.12
73734;BMP280;62039;50.000;9.064;2022-12-10T02:51:07;99417.94;;;0.12
73734;BMP280;62039;50.000;9.064;2022-12-10T02:53:33;99412.09;;;0.10
73734;BMP280;62039;50.000;9.064;2022-12-10T02:56:13;99412.09;;;0.10
73734;BMP280;62039;50.000;9.064;2022-12-10T02:58:47;99421.53;;;0.10
73734;BMP280;62039;50.000;9.064;2022-12-10T03:01:21;99420.03;;;0.07
73734;BMP280;62039;50.000;9.064;2022-12-10T03:03:53;99420.25;;;0.04
73734;BMP280;62039;50.000;9.064;2022-12-10T03:06:26;99421.41;;;0.00
73734;BMP280;62039;50.000;9.064;2022-12-10T03:09:00;99424.09;;;-0.01
73734;BMP280;62039;50.000;9.064;2022-12-10T03:11:28;99418.25;;;-0.04
73734;BMP280;62039;50.000;9.064;2022-12-10T03:13:58;99417.44;;;-0.04
73734;BMP280;62039;50.000;9.064;2022-12-10T03:16:31;99416.50;;;-0.03
73734;BMP280;62039;50.000;9.064;2022-12-10T03:19:02;99418.34;;;-0.05
73734;BMP280;62039;50.000;9.064;2022-12-10T03:21:30;99411.59;;;-0.06
73734;BMP280;62039;50.000;9.064;2022-12-10T03:23:58;99411.59;;;-0.06
73734;BMP280;62039;50.000;9.064;2022-12-10T03:26:26;99401.34;;;-0.06
73734;BMP280;62039;50.000;9.064;2022-12-10T03:28:56;99405.66;;;-0.07
73734;BMP280;62039;50.000;9.064;2022-12-10T03:31:24;99396.41;;;-0.09
73734;BMP280;62039;50.000;9.064;2022-12-10T03:33:52;99403.31;;;-0.10
73734;BMP280;62039;50.000;9.064;2022-12-10T03:36:20;99399.09;;;-0.11
73734;BMP280;62039;50.000;9.064;2022-12-10T03:38:47;99392.44;;;-0.13
73734;BMP280;62039;50.000;9.064;2022-12-10T03:41:13;99389.88;;;-0.13
73734;BMP280;62039;50.000;9.064;2022-12-10T03:43:50;99391.75;;;-0.15
73734;BMP280;62039;50.000;9.064;2022-12-10T03:46:17;99398.72;;;-0.17
73734;BMP280;62039;50.000;9.064;2022-12-10T03:48:44;99401.41;;;-0.19
73734;BMP280;62039;50.000;9.064;2022-12-10T03:51:12;99392.09;;;-0.20
73734;BMP280;62039;50.000;9.064;2022-12-10T03:53:38;99394.06;;;-0.23
73734;BMP280;62039;50.000;9.064;2022-12-10T03:56:05;99394.06;;;-0.23
73734;BMP280;62039;50.000;9.064;2022-12-10T03:58:31;99393.47;;;-0.27
73734;BMP280;62039;50.000;9.064;2022-12-10T04:00:58;99396.16;;;-0.28
73734;BMP280;62039;50.000;9.064;2022-12-10T04:03:24;99390.31;;;-0.30
73734;BMP280;62039;50.000;9.064;2022-12-10T04:05:51;99398.91;;;-0.31
73734;BMP280;62039;50.000;9.064;2022-12-10T04:08:19;99400.09;;;-0.35
73734;BMP280;62039;50.000;9.064;2022-12-10T04:10:45;99401.94;;;-0.37
73734;BMP280;62039;50.000;9.064;2022-12-10T04:13:12;99406.38;;;-0.39
73734;BMP280;62039;50.000;9.064;2022-12-10T04:15:39;99409.97;;;-0.42
73734;BMP280;62039;50.000;9.064;2022-12-10T04:18:05;99404.25;;;-0.46
73734;BMP280;62039;50.000;9.064;2022-12-10T04:20:32;99396.69;;;-0.47
73734;BMP280;62039;50.000;9.064;2022-12-10T04:22:59;99397.72;;;-0.50
73734;BMP280;62039;50.000;9.064;2022-12-10T04:25:27;99402.13;;;-0.52
73734;BMP280;62039;50.000;9.064;2022-12-10T04:27:53;99408.22;;;-0.53
73734;BMP280;62039;50.000;9.064;2022-12-10T04:30:20;99409.00;;;-0.52
73734;BMP280;62039;50.000;9.064;2022-12-10T04:32:46;99404.81;;;-0.53
73734;BMP280;62039;50.000;9.064;2022-12-10T04:35:13;99407.50;;;-0.55
73734;BMP280;62039;50.000;9.064;2022-12-10T04:37:40;99410.88;;;-0.54
73734;BMP280;62039;50.000;9.064;2022-12-10T04:40:07;99412.72;;;-0.56
73734;BMP280;62039;50.000;9.064;2022-12-10T04:42:36;99417.97;;;-0.58
73734;BMP280;62039;50.000;9.064;2022-12-10T04:45:03;99413.75;;;-0.59
73734;BMP280;62039;50.000;9.064;2022-12-10T04:47:29;99411.31;;;-0.60
73734;BMP280;62039;50.000;9.064;2022-12-10T04:49:56;99417.47;;;-0.63
73734;BMP280;62039;50.000;9.064;2022-12-10T04:52:22;99412.56;;;-0.66
73734;BMP280;62039;50.000;9.064;2022-12-10T04:54:49;99412.56;;;-0.66
73734;BMP280;62039;50.000;9.064;2022-12-10T04:57:15;99405.00;;;-0.67
73734;BMP280;62039;50.000;9.064;2022-12-10T04:59:43;99410.13;;;-0.67
73734;BMP280;62039;50.000;9.064;2022-12-10T05:02:10;99399.97;;;-0.69
73734;BMP280;62039;50.000;9.064;2022-12-10T05:04:36;99418.84;;;-0.70
73734;BMP280;62039;50.000;9.064;2022-12-10T05:07:03;99413.00;;;-0.72
73734;BMP280;62039;50.000;9.064;2022-12-10T05:09:29;99411.41;;;-0.73
73734;BMP280;62039;50.000;9.064;2022-12-10T05:11:56;99413.25;;;-0.75
73734;BMP280;62039;50.000;9.064;2022-12-10T05:14:24;99403.09;;;-0.76
73734;BMP280;62039;50.000;9.064;2022-12-10T05:16:52;99414.38;;;-0.79
73734;BMP280;62039;50.000;9.064;2022-12-10T05:19:19;99421.25;;;-0.79
73734;BMP280;62039;50.000;9.064;2022-12-10T05:21:46;99421.25;;;-0.79
73734;BMP280;62039;50.000;9.064;2022-12-10T05:24:12;99424.75;;;-0.80
73734;BMP280;62039;50.000;9.064;2022-12-10T05:26:39;99422.28;;;-0.82
73734;BMP280;62039;50.000;9.064;2022-12-10T05:29:06;99427.41;;;-0.82
73734;BMP280;62039;50.000;9.064;2022-12-10T05:31:32;99425.69;;;-0.81
73734;BMP280;62039;50.000;9.064;2022-12-10T05:34:00;99431.63;;;-0.81
73734;BMP280;62039;50.000;9.064;2022-12-10T05:36:29;99432.44;;;-0.80
73734;BMP280;62039;50.000;9.064;2022-12-10T05:38:56;99435.00;;;-0.80
73734;BMP280;62039;50.000;9.064;2022-12-10T05:41:24;99431.38;;;-0.78
73734;BMP280;62039;50.000;9.064;2022-12-10T05:43:53;99440.72;;;-0.77
73734;BMP280;62039;50.000;9.064;2022-12-10T05:46:21;99441.56;;;-0.76
73734;BMP280;62039;50.000;9.064;2022-12-10T05:48:49;99440.72;;;-0.77
73734;BMP280;62039;50.000;9.064;2022-12-10T05:51:19;99438.06;;;-0.75
73734;BMP280;62039;50.000;9.064;2022-12-10T05:53:46;99450.78;;;-0.74
73734;BMP280;62039;50.000;9.064;2022-12-10T05:56:14;99455.91;;;-0.74
73734;BMP280;62039;50.000;9.064;2022-12-10T05:58:42;99442.16;;;-0.73
73734;BMP280;62039;50.000;9.064;2022-12-10T06:01:11;99449.72;;;-0.71
73734;BMP280;62039;50.000;9.064;2022-12-10T06:03:38;99444.59;;;-0.71
73734;BMP280;62039;50.000;9.064;2022-12-10T06:06:05;99450.44;;;-0.69
73734;BMP280;62039;50.000;9.064;2022-12-10T06:08:34;99451.16;;;-0.67
73734;BMP280;62039;50.000;9.064;2022-12-10T06:11:01;99457.13;;;-0.67
73734;BMP280;62039;50.000;9.064;2022-12-10T06:13:27;99460.38;;;-0.65
73734;BMP280;62039;50.000;9.064;2022-12-10T06:15:54;99460.38;;;-0.65
73734;BMP280;62039;50.000;9.064;2022-12-10T06:18:21;99456.88;;;-0.64
73734;BMP280;62039;50.000;9.064;2022-12-10T06:20:48;99464.47;;;-0.62
73734;BMP280;62039;50.000;9.064;2022-12-10T06:23:14;99461.81;;;-0.61
73734;BMP280;62039;50.000;9.064;2022-12-10T06:25:43;99463.44;;;-0.60
73734;BMP280;62039;50.000;9.064;2022-12-10T06:28:09;99470.19;;;-0.59
73734;BMP280;62039;50.000;9.064;2022-12-10T06:30:36;99470.09;;;-0.57
73734;BMP280;62039;50.000;9.064;2022-12-10T06:33:03;99466.50;;;-0.55
73734;BMP280;62039;50.000;9.064;2022-12-10T06:35:29;99474.91;;;-0.53
73734;BMP280;62039;50.000;9.064;2022-12-10T06:37:56;99473.03;;;-0.51
73734;BMP280;62039;50.000;9.064;2022-12-10T06:40:22;99480.63;;;-0.49
73734;BMP280;62039;50.000;9.064;2022-12-10T06:42:51;99487.31;;;-0.47
73734;BMP280;62039;50.000;9.064;2022-12-10T06:45:18;99488.91;;;-0.46
73734;BMP280;62039;50.000;9.064;2022-12-10T06:47:44;99486.25;;;-0.44
73734;BMP280;62039;50.000;9.064;2022-12-10T06:50:11;99491.28;;;-0.43
73734;BMP280;62039;50.000;9.064;2022-12-10T06:52:38;99491.19;;;-0.41
73734;BMP280;62039;50.000;9.064;2022-12-10T06:55:05;99496.22;;;-0.39
73734;BMP280;62039;50.000;9.064;2022-12-10T06:57:31;99502.13;;;-0.39
73734;BMP280;62039;50.000;9.064;2022-12-10T06:59:59;99502.94;;;-0.38
73734;BMP280;62039;50.000;9.064;2022-12-10T07:02:26;99502.84;;;-0.37
73734;BMP280;62039;50.000;9.064;2022-12-10T07:04:52;99502.75;;;-0.35
73734;BMP280;62039;50.000;9.064;2022-12-10T07:07:19;99500.06;;;-0.34
73734;BMP280;62039;50.000;9.064;2022-12-10T07:09:45;99508.47;;;-0.32
73734;BMP280;62039;50.000;9.064;2022-12-10T07:12:12;99500.66;;;-0.30
73734;BMP280;62039;50.000;9.064;2022-12-10T07:14:39;99510.81;;;-0.29
73734;BMP280;62039;50.000;9.064;2022-12-10T07:17:06;99508.84;;;-0.25
73734;BMP280;62039;50.000;9.064;2022-12-10T07:19:33;99513.06;;;-0.24
73734;BMP280;62039;50.000;9.064;2022-12-10T07:21:59;99512.13;;;-0.23
73734;BMP280;62039;50.000;9.064;2022-12-10T07:24:26;99518.91;;;-0.22
73734;BMP280;62039;50.000;9.064;2022-12-10T07:26:53;99514.59;;;-0.22
73734;BMP280;62039;50.000;9.064;2022-12-10T07:29:21;99516.22;;;-0.21
73734;BMP280;62039;50.000;9.064;2022-12-10T07:31:48;99520.31;;;-0.18
73734;BMP280;62039;50.000;9.064;2022-12-10T07:34:17;99532.31;;;-0.19
73734;BMP280;62039;50.000;9.064;2022-12-10T07:36:44;99525.44;;;-0.18
73734;BMP280;62039;50.000;9.064;2022-12-10T07:39:10;99533.03;;;-0.17
73734;BMP280;62039;50.000;9.064;2022-12-10T07:41:37;99526.97;;;-0.16
73734;BMP280;62039;50.000;9.064;2022-12-10T07:44:04;99532.94;;;-0.15
73734;BMP280;62039;50.000;9.064;2022-12-10T07:46:31;99538.78;;;-0.13
73734;BMP280;62039;50.000;9.064;2022-12-10T07:49:00;99530.94;;;-0.12
73734;BMP280;62039;50.000;9.064;2022-12-10T07:51:29;99537.63;;;-0.09
73734;BMP280;62039;50.000;9.064;2022-12-10T07:53:56;99534.34;;;-0.11
73734;BMP280;62039;50.000;9.064;2022-12-10T07:56:23;99537.63;;;-0.09
73734;BMP280;62039;50.000;9.064;2022-12-10T07:58:51;99539.38;;;-0.10
73734;BMP280;62039;50.000;9.064;2022-12-10T08:01:23;99538.56;;;-0.10
73734;BMP280;62039;50.000;9.064;2022-12-10T08:03:50;99535.97;;;-0.10
73734;BMP280;62039;50.000;9.064;2022-12-10T08:06:19;99542.88;;;-0.11
73734;BMP280;62039;50.000;9.064;2022-12-10T08:08:48;99540.41;;;-0.12
73734;BMP280;62039;50.000;9.064;2022-12-10T08:11:16;99538.78;;;-0.13
73734;BMP280;62039;50.000;9.064;2022-12-10T08:13:44;99538.78;;;-0.13
73734;BMP280;62039;50.000;9.064;2022-12-10T08:16:12;99548.81;;;-0.10
73734;BMP280;62039;50.000;9.064;2022-12-10T08:18:39;99554.78;;;-0.10
73734;BMP280;62039;50.000;9.064;2022-12-10T08:21:07;99553.97;;;-0.10
73734;BMP280;62039;50.000;9.064;2022-12-10T08:23:34;99556.53;;;-0.10
73734;BMP280;62039;50.000;9.064;2022-12-10T08:26:04;99560.00;;;-0.11
73734;BMP280;62039;50.000;9.064;2022-12-10T08:28:31;99559.34;;;-0.13
73734;BMP280;62039;50.000;9.064;2022-12-10T08:30:57;99566.22;;;-0.14
73734;BMP280;62039;50.000;9.064;2022-12-10T08:33:24;99559.34;;;-0.13
73734;BMP280;62039;50.000;9.064;2022-12-10T08:35:50;99564.47;;;-0.13
73734;BMP280;62039;50.000;9.064;2022-12-10T08:38:17;99563.63;;;-0.14
73734;BMP280;62039;50.000;9.064;2022-12-10T08:40:44;99576.34;;;-0.12
73734;BMP280;62039;50.000;9.064;2022-12-10T08:43:12;99569.59;;;-0.13
73734;BMP280;62039;50.000;9.064;2022-12-10T08:45:38;99572.16;;;-0.13
73734;BMP280;62039;50.000;9.064;2022-12-10T08:48:05;99569.59;;;-0.13
73734;BMP280;62039;50.000;9.064;2022-12-10T08:50:31;99575.41;;;-0.11
73734;BMP280;62039;50.000;9.064;2022-12-10T08:52:58;99581.28;;;-0.09
73734;BMP280;62039;50.000;9.064;2022-12-10T08:55:24;99582.69;;;-0.05
73734;BMP280;62039;50.000;9.064;2022-12-10T08:57:51;99580.84;;;-0.03
73734;BMP280;62039;50.000;9.064;2022-12-10T09:00:19;99582.28;;;0.01
73734;BMP280;62039;50.000;9.064;2022-12-10T09:02:45;99582.13;;;0.03
73734;BMP280;62039;50.000;9.064;2022-12-10T09:05:12;99580.19;;;0.06
73734;BMP280;62039;50.000;9.064;2022-12-10T09:07:38;99581.69;;;0.09
73734;BMP280;62039;50.000;9.064;2022-12-10T09:10:06;99583.22;;;0.11
73734;BMP280;62039;50.000;9.064;2022-12-10T09:12:33;99589.09;;;0.13
73734;BMP280;62039;50.000;9.064;2022-12-10T09:15:00;99587.19;;;0.15
73734;BMP280;62039;50.000;9.064;2022-12-10T09:17:28;99584.44;;;0.18
73734;BMP280;62039;50.000;9.064;2022-12-10T09:19:54;99586.06;;;0.19
73734;BMP280;62039;50.000;9.064;2022-12-10T09:22:21;99587.47;;;0.23
73734;BMP280;62039;50.000;9.064;2022-12-10T09:24:47;99589.00;;;0.26
73734;BMP280;62039;50.000;9.064;2022-12-10T09:27:14;99588.91;;;0.27
73734;BMP280;62039;50.000;9.064;2022-12-10T09:29:40;99589.53;;;0.31
73734;BMP280;62039;50.000;9.064;2022-12-10T09:32:07;99600.41;;;0.34
73734;BMP280;62039;50.000;9.064;2022-12-10T09:34:35;99595.97;;;0.37
73734;BMP280;62039;50.000;9.064;2022-12-10T09:37:01;99603.47;;;0.40
73734;BMP280;62039;50.000;9.064;2022-12-10T09:39:28;99606.75;;;0.42
73734;BMP280;62039;50.000;9.064;2022-12-10T09:42:03;99607.31;;;0.45
73734;BMP280;62039;50.000;9.064;2022-12-10T09:44:41;99604.66;;;0.47
73734;BMP280;62039;50.000;9.064;2022-12-10T09:47:10;99597.63;;;0.49
73734;BMP280;62039;50.000;9.064;2022-12-10T09:49:48;99591.56;;;0.50
73734;BMP280;62039;50.000;9.064;2022-12-10T09:52:19;99603.47;;;0.51
73734;BMP280;62039;50.000;9.064;2022-12-10T09:54:49;99601.53;;;0.54
73734;BMP280;62039;50.000;9.064;2022-12-10T09:57:22;99595.31;;;0.57
73734;BMP280;62039;50.000;9.064;2022-12-10T09:59:51;99596.03;;;0.59
73734;BMP280;62039;50.000;9.064;2022-12-10T10:02:22;99593.25;;;0.62
73734;BMP280;62039;50.000;9.064;2022-12-10T10:04:53;99592.28;;;0.63
73734;BMP280;62039;50.000;9.064;2022-12-10T10:07:23;99590.44;;;0.65
73734;BMP280;62039;50.000;9.064;2022-12-10T10:09:51;99592.78;;;0.68
73734;BMP280;62039;50.000;9.064;2022-12-10T10:12:21;99596.97;;;0.69
73734;BMP280;62039;50.000;9.064;2022-12-10T10:14:48;99592.53;;;0.71
73734;BMP280;62039;50.000;9.064;2022-12-10T10:17:19;99592.44;;;0.72
73734;BMP280;62039;50.000;9.064;2022-12-10T10:19:46;99592.31;;;0.74
73734;BMP280;62039;50.000;9.064;2022-12-10T10:22:14;99590.44;;;0.76
73734;BMP280;62039;50.000;9.064;2022-12-10T10:24:42;99583.44;;;0.78
73734;BMP280;62039;50.000;9.064;2022-12-10T10:27:13;99584.25;;;0.79
73734;BMP280;62039;50.000;9.064;2022-12-10T10:29:41;99588.38;;;0.81
73734;BMP280;62039;50.000;9.064;2022-12-10T10:32:16;99580.41;;;0.84
73734;BMP280;62039;50.000;9.064;2022-12-10T10:34:45;99586.25;;;0.86
73734;BMP280;62039;50.000;9.064;2022-12-10T10:37:19;99586.97;;;0.88
73734;BMP280;62039;50.000;9.064;2022-12-10T10:39:47;99586.97;;;0.88
73734;BMP280;62039;50.000;9.064;2022-12-10T10:42:24;99583.59;;;0.88
73734;BMP280;62039;50.000;9.064;2022-12-10T10:44:51;99587.91;;;0.87
73734;BMP280;62039;50.000;9.064;2022-12-10T10:47:26;99588.59;;;0.89
73734;BMP280;62039;50.000;9.064;2022-12-10T10:50:00;99586.84;;;0.90
73734;BMP280;62039;50.000;9.064;2022-12-10T10:52:30;99585.78;;;0.92
73734;BMP280;62039;50.000;9.064;2022-12-10T10:55:00;99586.50;;;0.94
73734;BMP280;62039;50.000;9.064;2022-12-10T10:57:31;99583.69;;;0.97
73734;BMP280;62039;50.000;9.064;2022-12-10T11:00:04;99581.84;;;0.99
73734;BMP280;62039;50.000;9.064;2022-12-10T11:02:36;99596.09;;;1.03
73734;BMP280;62039;50.000;9.064;2022-12-10T11:05:08;99579.72;;;1.04
73734;BMP280;62039;50.000;9.064;2022-12-10T11:07:37;99587.22;;;1.07
73734;BMP280;62039;50.000;9.064;2022-12-10T11:10:16;99592.25;;;1.09
73734;BMP280;62039;50.000;9.064;2022-12-10T11:12:44;99583.47;;;1.11
73734;BMP280;62039;50.000;9.064;2022-12-10T11:15:32;99587.69;;;1.12
73734;BMP280;62039;50.000;9.064;2022-12-10T11:17:59;99588.38;;;1.14
73734;BMP280;62039;50.000;9.064;2022-12-10T11:20:29;99586.38;;;1.18
73734;BMP280;62039;50.000;9.064;2022-12-10T11:22:58;99591.41;;;1.20
73734;BMP280;62039;50.000;9.064;2022-12-10T11:25:37;99592.13;;;1.22
73734;BMP280;62039;50.000;9.064;2022-12-10T11:28:15;99602.16;;;1.25
73734;BMP280;62039;50.000;9.064;2022-12-10T11:30:54;99599.50;;;1.26
73734;BMP280;62039;50.000;9.064;2022-12-10T11:33:29;99590.94;;;1.26
73734;BMP280;62039;50.000;9.064;2022-12-10T11:36:05;99598.44;;;1.29
73734;BMP280;62039;50.000;9.064;2022-12-10T11:38:41;99594.91;;;1.30
73734;BMP280;62039;50.000;9.064;2022-12-10T11:41:16;99597.38;;;1.31
73734;BMP280;62039;50.000;9.064;2022-12-10T11:43:57;99585.22;;;1.33
73734;BMP280;62039;50.000;9.064;2022-12-10T11:46:38;99589.31;;;1.36
73734;BMP280;62039;50.000;9.064;2022-12-10T11:49:19;99587.41;;;1.38
73734;BMP280;62039;50.000;9.064;2022-12-10T11:51:53;99583.91;;;1.39
73734;BMP280;62039;50.000;9.064;2022-12-10T11:54:38;99588.03;;;1.41
73734;BMP280;62039;50.000;9.064;2022-12-10T11:57:13;99582.63;;;1.44
73734;BMP280;62039;50.000;9.064;2022-12-10T11:59:44;99589.41;;;1.45
73734;BMP280;62039;50.000;9.064;2022-12-10T12:02:46;99591.59;;;1.50
73734;BMP280;62039;50.000;9.064;2022-12-10T12:05:38;99589.75;;;1.52
73734;BMP280;62039;50.000;9.064;2022-12-10T12:08:12;99595.50;;;1.56
73734;BMP280;62039;50.000;9.064;2022-12-10T12:11:08;99597.09;;;1.57
73734;BMP280;62039;50.000;9.064;2022-12-10T12:13:52;99604.72;;;1.58
73734;BMP280;62039;50.000;9.064;2022-12-10T12:16:24;99602.97;;;1.59
73734;BMP280;62039;50.000;9.064;2022-12-10T12:18:56;99600.97;;;1.62
73734;BMP280;62039;50.000;9.064;2022-12-10T12:21:24;99598.16;;;1.65
73734;BMP280;62039;50.000;9.064;2022-12-10T12:23:55;99602.13;;;1.69
73734;BMP280;62039;50.000;9.064;2022-12-10T12:26:34;99608.66;;;1.73
73734;BMP280;62039;50.000;9.064;2022-12-10T12:29:09;99602.34;;;1.77
73734;BMP280;62039;50.000;9.064;2022-12-10T12:31:40;99608.19;;;1.79
73734;BMP280;62039;50.000;9.064;2022-12-10T12:34:15;99607.25;;;1.80
73734;BMP280;62039;50.000;9.064;2022-12-10T12:36:42;99601.84;;;1.83
73734;BMP280;62039;50.000;9.064;2022-12-10T12:39:18;99604.19;;;1.86
73734;BMP280;62039;50.000;9.064;2022-12-10T12:41:51;99603.13;;;1.89
73734;BMP280;62039;50.000;9.064;2022-12-10T12:44:32;99604.06;;;1.88
73734;BMP280;62039;50.000;9.064;2022-12-10T12:47:05;99605.72;;;1.89
73734;BMP280;62039;50.000;9.064;2022-12-10T12:49:39;99607.47;;;1.88
73734;BMP280;62039;50.000;9.064;2022-12-10T12:52:20;99605.81;;;1.87
73734;BMP280;62039;50.000;9.064;2022-12-10T12:54:52;99613.66;;;1.86
73734;BMP280;62039;50.000;9.064;2022-12-10T12:57:28;99614.50;;;1.86
73734;BMP280;62039;50.000;9.064;2022-12-10T13:00:00;99621.28;;;1.87
73734;BMP280;62039;50.000;9.064;2022-12-10T13:02:44;99621.28;;;1.87
73734;BMP280;62039;50.000;9.064;2022-12-10T13:05:14;99616.97;;;1.88
73734;BMP280;62039;50.000;9.064;2022-12-10T13:07:41;99620.47;;;1.87
73734;BMP280;62039;50.000;9.064;2022-12-10T13:10:25;99611.09;;;1.86
73734;BMP280;62039;50.000;9.064;2022-12-10T13:13:07;99624.78;;;1.86
73734;BMP280;62039;50.000;9.064;2022-12-10T13:15:42;99620.69;;;1.84
73734;BMP280;62039;50.000;9.064;2022-12-10T13:18:33;99624.34;;;1.81
73734;BMP280;62039;50.000;9.064;2022-12-10T13:21:28;99619.53;;;1.77
73734;BMP280;62039;50.000;9.064;2022-12-10T13:24:06;99626.59;;;1.75
73734;BMP280;62039;50.000;9.064;2022-12-10T13:26:33;99622.47;;;1.72
73734;BMP280;62039;50.000;9.064;2022-12-10T13:29:24;99627.63;;;1.72
73734;BMP280;62039;50.000;9.064;2022-12-10T13:31:56;99630.22;;;1.72
73734;BMP280;62039;50.000;9.064;2022-12-10T13:34:31;99628.34;;;1.74
73734;BMP280;62039;50.000;9.064;2022-12-10T13:37:28;99630.09;;;1.74
73734;BMP280;62039;50.000;9.064;2022-12-10T13:40:03;99634.31;;;1.75
73734;BMP280;62039;50.000;9.064;2022-12-10T13:42:39;99643.78;;;1.74
73734;BMP280;62039;50.000;9.064;2022-12-10T13:45:26;99643.91;;;1.73
73734;BMP280;62039;50.000;9.064;2022-12-10T13:47:54;99654.91;;;1.75
73734;BMP280;62039;50.000;9.064;2022-12-10T13:50:32;99649.88;;;1.73
73734;BMP280;62039;50.000;9.064;2022-12-10T13:53:05;99648.22;;;1.72
73734;BMP280;62039;50.000;9.064;2022-12-10T13:55:38;99660.41;;;1.70
73734;BMP280;62039;50.000;9.064;2022-12-10T13:58:26;99661.47;;;1.68
73734;BMP280;62039;50.000;9.064;2022-12-10T14:01:02;99666.72;;;1.66
73734;BMP280;62039;50.000;9.064;2022-12-10T14:03:43;99672.81;;;1.65
73734;BMP280;62039;50.000;9.064;2022-12-10T14:06:14;99669.31;;;1.66
73734;BMP280;62039;50.000;9.064;2022-12-10T14:08:53;99671.78;;;1.68
73734;BMP280;62039;50.000;9.064;2022-12-10T14:11:21;99673.41;;;1.69
73734;BMP280;62039;50.000;9.064;2022-12-10T14:13:51;99676.66;;;1.71
73734;BMP280;62039;50.000;9.064;2022-12-10T14:16:22;99679.94;;;1.73
73734;BMP280;62039;50.000;9.064;2022-12-10T14:18:52;99687.47;;;1.76
73734;BMP280;62039;50.000;9.064;2022-12-10T14:21:20;99690.03;;;1.76
73734;BMP280;62039;50.000;9.064;2022-12-10T14:23:48;99691.41;;;1.80
73734;BMP280;62039;50.000;9.064;2022-12-10T14:26:27;99695.63;;;1.81
73734;BMP280;62039;50.000;9.064;2022-12-10T14:28:56;99696.34;;;1.83
73734;BMP280;62039;50.000;9.064;2022-12-10T14:31:27;99694.44;;;1.85
73734;BMP280;62039;50.000;9.064;2022-12-10T14:33:59;99701.34;;;1.84